createdAt,value
2018-03-18T00:00:19.631Z,5.00
2018-03-18T00:00:51.298Z,5.00
2018-03-18T00:01:22.962Z,5.00
2018-03-18T00:01:54.626Z,5.00
2018-03-18T00:02:28.203Z,5.00
2018-03-18T00:02:59.858Z,5.00
2018-03-18T00:03:31.568Z,5.00
2018-03-18T00:04:03.245Z,5.00
2018-03-18T00:04:34.925Z,5.00
2018-03-18T00:05:06.587Z,5.00
2018-03-18T00:05:38.207Z,5.00
2018-03-18T00:06:09.909Z,5.00
2018-03-18T00:06:41.564Z,5.00
2018-03-18T00:07:13.207Z,5.00
2018-03-18T00:07:44.867Z,5.00
2018-03-18T00:08:16.481Z,5.00
2018-03-18T00:08:48.092Z,5.00
2018-03-18T00:09:19.751Z,5.00
2018-03-18T00:09:51.369Z,5.00
2018-03-18T00:10:23.033Z,5.00
2018-03-18T00:10:54.683Z,5.00
2018-03-18T00:11:26.295Z,5.00
2018-03-18T00:11:57.923Z,5.00
2018-03-18T00:12:29.549Z,5.00
2018-03-18T00:13:01.195Z,5.00
2018-03-18T00:13:32.843Z,5.00
2018-03-18T00:14:04.481Z,5.00
2018-03-18T00:14:36.095Z,5.00
2018-03-18T00:15:07.725Z,5.00
2018-03-18T00:15:39.372Z,5.00
2018-03-18T00:16:10.991Z,5.00
2018-03-18T00:16:42.621Z,5.00
2018-03-18T00:17:14.237Z,5.00
2018-03-18T00:17:45.843Z,5.00
2018-03-18T00:18:18.377Z,5.00
2018-03-18T00:18:50.016Z,5.00
2018-03-18T00:19:21.634Z,5.00
2018-03-18T00:19:53.245Z,5.00
2018-03-18T00:20:24.877Z,5.00
2018-03-18T00:20:56.519Z,5.00
2018-03-18T00:21:28.182Z,5.00
2018-03-18T00:21:59.806Z,5.00
2018-03-18T00:22:31.427Z,5.00
2018-03-18T00:23:03.077Z,5.00
2018-03-18T00:23:34.713Z,5.00
2018-03-18T00:24:06.317Z,5.00
2018-03-18T00:24:37.990Z,5.00
2018-03-18T00:25:09.592Z,5.00
2018-03-18T00:25:41.202Z,5.00
2018-03-18T00:26:12.831Z,5.00
2018-03-18T00:26:44.449Z,5.00
2018-03-18T00:27:16.085Z,5.00
2018-03-18T00:27:47.707Z,5.00
2018-03-18T00:28:19.319Z,5.00
2018-03-18T00:28:50.951Z,5.00
2018-03-18T00:29:22.585Z,5.00
2018-03-18T00:29:54.195Z,5.00
2018-03-18T00:30:25.886Z,5.00
2018-03-18T00:30:57.509Z,5.00
2018-03-18T00:31:29.137Z,5.00
2018-03-18T00:32:00.753Z,5.00
2018-03-18T00:32:32.381Z,5.00
2018-03-18T00:33:04.013Z,5.00
2018-03-18T00:33:35.631Z,5.00
2018-03-18T00:34:07.253Z,5.00
2018-03-18T00:34:38.883Z,5.90
2018-03-18T00:35:10.520Z,6.30
2018-03-18T00:35:42.141Z,5.60
2018-03-18T00:36:13.787Z,6.10
2018-03-18T00:36:45.421Z,5.50
2018-03-18T00:37:17.053Z,5.00
2018-03-18T00:37:48.678Z,5.40
2018-03-18T00:38:20.334Z,5.00
2018-03-18T00:38:51.972Z,6.10
2018-03-18T00:39:23.589Z,5.90
2018-03-18T00:39:55.236Z,6.60
2018-03-18T00:40:26.853Z,6.70
2018-03-18T00:40:58.513Z,6.30
2018-03-18T00:41:30.149Z,5.90
2018-03-18T00:42:01.801Z,5.00
2018-03-18T00:42:33.433Z,5.60
2018-03-18T00:43:05.097Z,5.00
2018-03-18T00:43:36.717Z,5.50
2018-03-18T00:44:08.368Z,5.00
2018-03-18T00:44:39.981Z,5.00
2018-03-18T00:45:11.601Z,5.00
2018-03-18T00:45:43.212Z,6.40
2018-03-18T00:46:14.857Z,6.00
2018-03-18T00:46:46.507Z,6.70
2018-03-18T00:47:18.149Z,6.80
2018-03-18T00:47:49.782Z,6.50
2018-03-18T00:48:21.409Z,6.00
2018-03-18T00:48:53.062Z,6.40
2018-03-18T00:49:24.696Z,7.20
2018-03-18T00:49:56.345Z,6.90
2018-03-18T00:50:27.973Z,6.10
2018-03-18T00:50:59.585Z,6.10
2018-03-18T00:51:49.867Z,7.10
2018-03-18T00:52:21.521Z,7.20
2018-03-18T00:52:53.137Z,6.50
2018-03-18T00:53:24.771Z,7.00
2018-03-18T00:53:56.385Z,6.80
2018-03-18T00:54:28.025Z,6.60
2018-03-18T00:54:59.641Z,7.50
2018-03-18T00:55:31.273Z,7.20
2018-03-18T00:56:02.929Z,7.20
2018-03-18T00:56:34.552Z,7.00
2018-03-18T00:57:06.193Z,7.30
2018-03-18T00:57:37.823Z,7.70
2018-03-18T00:58:09.435Z,7.50
2018-03-18T00:58:41.081Z,7.80
2018-03-18T00:59:12.695Z,8.90
2018-03-18T00:59:44.330Z,8.90
2018-03-18T01:00:15.969Z,8.00
2018-03-18T01:00:47.601Z,7.80
2018-03-18T01:01:19.231Z,7.80
2018-03-18T01:01:50.878Z,8.00
2018-03-18T01:02:22.521Z,7.60
2018-03-18T01:02:54.169Z,7.90
2018-03-18T01:03:25.797Z,7.10
2018-03-18T01:03:57.441Z,7.00
2018-03-18T01:04:29.052Z,7.30
2018-03-18T01:05:00.704Z,7.10
2018-03-18T01:05:32.331Z,6.00
2018-03-18T01:06:03.969Z,6.20
2018-03-18T01:06:35.616Z,5.60
2018-03-18T01:07:07.279Z,5.80
2018-03-18T01:07:38.907Z,5.60
2018-03-18T01:08:10.553Z,5.60
2018-03-18T01:08:42.197Z,6.20
2018-03-18T01:09:13.825Z,6.40
2018-03-18T01:09:45.481Z,6.90
2018-03-18T01:10:17.117Z,7.80
2018-03-18T01:10:48.745Z,7.80
2018-03-18T01:11:20.387Z,8.00
2018-03-18T01:11:52.033Z,8.40
2018-03-18T01:12:23.675Z,8.10
2018-03-18T01:12:55.349Z,7.60
2018-03-18T01:13:26.977Z,7.20
2018-03-18T01:13:58.639Z,7.10
2018-03-18T01:14:30.247Z,6.70
2018-03-18T01:15:01.879Z,6.60
2018-03-18T01:15:33.541Z,5.90
2018-03-18T01:16:05.191Z,5.70
2018-03-18T01:16:36.851Z,5.90
2018-03-18T01:17:08.476Z,5.80
2018-03-18T01:17:40.107Z,6.10
2018-03-18T01:18:11.731Z,5.70
2018-03-18T01:18:43.365Z,5.70
2018-03-18T01:19:14.977Z,5.80
2018-03-18T01:19:46.606Z,5.80
2018-03-18T01:20:18.231Z,6.00
2018-03-18T01:20:49.853Z,6.80
2018-03-18T01:21:21.499Z,6.90
2018-03-18T01:21:53.116Z,8.00
2018-03-18T01:22:24.763Z,7.30
2018-03-18T01:22:56.389Z,6.90
2018-03-18T01:23:28.014Z,6.70
2018-03-18T01:23:59.637Z,7.90
2018-03-18T01:24:31.273Z,7.60
2018-03-18T01:25:02.957Z,7.20
2018-03-18T01:25:34.607Z,7.00
2018-03-18T01:26:06.237Z,7.60
2018-03-18T01:26:37.897Z,6.90
2018-03-18T01:27:09.501Z,7.60
2018-03-18T01:27:41.147Z,7.30
2018-03-18T01:28:12.770Z,7.50
2018-03-18T01:28:44.416Z,6.30
2018-03-18T01:29:16.041Z,7.20
2018-03-18T01:29:47.655Z,6.60
2018-03-18T01:30:19.285Z,7.00
2018-03-18T01:30:50.939Z,6.90
2018-03-18T01:31:22.577Z,6.40
2018-03-18T01:31:54.230Z,5.70
2018-03-18T01:32:25.867Z,7.10
2018-03-18T01:32:57.493Z,6.90
2018-03-18T01:33:29.119Z,7.10
2018-03-18T01:34:00.750Z,7.50
2018-03-18T01:34:32.369Z,7.90
2018-03-18T01:35:04.035Z,7.60
2018-03-18T01:35:35.651Z,7.00
2018-03-18T01:36:07.317Z,7.00
2018-03-18T01:36:38.958Z,6.90
2018-03-18T01:37:10.588Z,6.80
2018-03-18T01:37:42.231Z,7.40
2018-03-18T01:38:13.879Z,6.40
2018-03-18T01:38:45.502Z,6.00
2018-03-18T01:39:17.121Z,6.00
2018-03-18T01:39:48.793Z,6.20
2018-03-18T01:40:20.417Z,6.30
2018-03-18T01:40:52.047Z,6.40
2018-03-18T01:41:23.695Z,7.10
2018-03-18T01:41:55.329Z,7.00
2018-03-18T01:42:26.969Z,6.20
2018-03-18T01:42:58.593Z,6.20
2018-03-18T01:43:30.221Z,7.00
2018-03-18T01:44:01.837Z,6.30
2018-03-18T01:44:33.479Z,6.50
2018-03-18T01:45:05.113Z,6.60
2018-03-18T01:45:36.725Z,6.90
2018-03-18T01:46:08.367Z,5.60
2018-03-18T01:46:40.005Z,5.60
2018-03-18T01:47:11.627Z,6.10
2018-03-18T01:47:43.265Z,5.40
2018-03-18T01:48:14.877Z,5.50
2018-03-18T01:48:46.497Z,6.00
2018-03-18T01:49:18.129Z,6.30
2018-03-18T01:49:49.776Z,5.70
2018-03-18T01:50:21.431Z,5.50
2018-03-18T01:50:53.051Z,5.60
2018-03-18T01:51:24.681Z,6.10
2018-03-18T01:51:56.318Z,6.00
2018-03-18T01:52:27.935Z,5.50
2018-03-18T01:53:18.179Z,6.20
2018-03-18T01:53:49.801Z,7.20
2018-03-18T01:54:21.431Z,7.00
2018-03-18T01:54:53.051Z,7.00
2018-03-18T01:55:24.687Z,6.30
2018-03-18T01:55:56.307Z,6.00
2018-03-18T01:56:27.920Z,6.50
2018-03-18T01:56:59.551Z,6.10
2018-03-18T01:57:31.177Z,6.30
2018-03-18T01:58:02.793Z,6.00
2018-03-18T01:58:34.421Z,5.60
2018-03-18T01:59:06.031Z,6.40
2018-03-18T01:59:37.651Z,7.30
2018-03-18T02:00:09.277Z,6.80
2018-03-18T02:00:40.949Z,6.80
2018-03-18T02:01:12.595Z,6.60
2018-03-18T02:01:44.217Z,5.80
2018-03-18T02:02:15.833Z,5.80
2018-03-18T02:02:47.473Z,5.80
2018-03-18T02:03:19.170Z,5.60
2018-03-18T02:03:50.749Z,5.20
2018-03-18T02:04:22.393Z,5.00
2018-03-18T02:04:54.021Z,5.00
2018-03-18T02:05:25.672Z,5.00
2018-03-18T02:05:57.310Z,5.00
2018-03-18T02:06:28.936Z,5.00
2018-03-18T02:07:00.539Z,5.00
2018-03-18T02:07:32.159Z,6.00
2018-03-18T02:08:03.804Z,6.40
2018-03-18T02:08:35.426Z,6.10
2018-03-18T02:09:07.060Z,6.40
2018-03-18T02:09:38.695Z,5.80
2018-03-18T02:10:10.341Z,6.80
2018-03-18T02:10:41.977Z,6.80
2018-03-18T02:11:13.613Z,6.10
2018-03-18T02:11:45.226Z,5.20
2018-03-18T02:12:16.897Z,5.00
2018-03-18T02:12:48.533Z,5.00
2018-03-18T02:13:20.163Z,5.00
2018-03-18T02:13:51.821Z,5.00
2018-03-18T02:14:23.445Z,5.00
2018-03-18T02:14:55.096Z,5.00
2018-03-18T02:15:26.749Z,5.00
2018-03-18T02:15:58.397Z,5.00
2018-03-18T02:16:30.040Z,5.50
2018-03-18T02:17:01.652Z,5.00
2018-03-18T02:17:33.275Z,5.00
2018-03-18T02:18:04.926Z,5.00
2018-03-18T02:18:36.557Z,5.00
2018-03-18T02:19:08.182Z,5.00
2018-03-18T02:19:39.833Z,5.00
2018-03-18T02:20:11.475Z,5.00
2018-03-18T02:20:43.095Z,5.00
2018-03-18T02:21:14.738Z,5.00
2018-03-18T02:21:46.426Z,5.00
2018-03-18T02:22:18.059Z,5.00
2018-03-18T02:22:49.735Z,5.00
2018-03-18T02:23:21.353Z,5.20
2018-03-18T02:23:52.977Z,5.30
2018-03-18T02:24:24.605Z,5.00
2018-03-18T02:24:56.233Z,5.00
2018-03-18T02:25:27.887Z,5.00
2018-03-18T02:25:59.505Z,5.00
2018-03-18T02:26:31.139Z,5.20
2018-03-18T02:27:02.811Z,5.50
2018-03-18T02:27:34.437Z,5.00
2018-03-18T02:28:06.067Z,5.20
2018-03-18T02:28:37.719Z,5.30
2018-03-18T02:29:09.357Z,5.00
2018-03-18T02:29:40.995Z,5.60
2018-03-18T02:30:12.598Z,5.70
2018-03-18T02:30:44.233Z,5.00
2018-03-18T02:31:15.859Z,5.00
2018-03-18T02:31:47.507Z,5.00
2018-03-18T02:32:19.145Z,5.30
2018-03-18T02:32:50.764Z,5.40
2018-03-18T02:33:22.391Z,6.30
2018-03-18T02:33:54.021Z,5.70
2018-03-18T02:34:25.643Z,5.00
2018-03-18T02:34:57.286Z,5.60
2018-03-18T02:35:28.921Z,5.50
2018-03-18T02:36:00.548Z,5.20
2018-03-18T02:36:32.169Z,5.00
2018-03-18T02:37:03.820Z,5.20
2018-03-18T02:37:35.489Z,5.00
2018-03-18T02:38:07.117Z,5.00
2018-03-18T02:38:38.771Z,5.30
2018-03-18T02:39:10.413Z,5.60
2018-03-18T02:39:42.058Z,6.60
2018-03-18T02:40:13.695Z,6.20
2018-03-18T02:40:45.376Z,7.60
2018-03-18T02:41:16.971Z,6.90
2018-03-18T02:41:48.587Z,7.30
2018-03-18T02:42:20.233Z,7.40
2018-03-18T02:42:51.862Z,6.90
2018-03-18T02:43:23.482Z,5.80
2018-03-18T02:43:55.113Z,6.00
2018-03-18T02:44:26.738Z,5.80
2018-03-18T02:44:58.404Z,6.90
2018-03-18T02:45:30.039Z,6.30
2018-03-18T02:46:01.663Z,5.90
2018-03-18T02:46:33.285Z,5.60
2018-03-18T02:47:04.926Z,6.10
2018-03-18T02:47:36.532Z,5.00
2018-03-18T02:48:08.147Z,5.00
2018-03-18T02:48:39.793Z,5.50
2018-03-18T02:49:11.443Z,5.50
2018-03-18T02:49:43.074Z,5.00
2018-03-18T02:50:14.699Z,5.00
2018-03-18T02:50:46.339Z,5.60
2018-03-18T02:51:17.985Z,5.90
2018-03-18T02:51:49.591Z,5.60
2018-03-18T02:52:21.243Z,5.30
2018-03-18T02:52:52.874Z,5.60
2018-03-18T02:53:24.503Z,5.30
2018-03-18T02:53:56.121Z,5.40
2018-03-18T02:54:27.753Z,5.00
2018-03-18T02:54:59.382Z,5.00
2018-03-18T02:55:30.994Z,5.00
2018-03-18T02:56:02.658Z,5.30
2018-03-18T02:56:34.307Z,5.60
2018-03-18T02:57:05.936Z,5.90
2018-03-18T02:57:37.560Z,5.30
2018-03-18T02:58:09.187Z,5.60
2018-03-18T02:58:40.823Z,5.60
2018-03-18T02:59:12.439Z,6.40
2018-03-18T02:59:44.062Z,7.00
2018-03-18T03:00:15.689Z,7.80
2018-03-18T03:00:47.330Z,7.60
2018-03-18T03:01:18.973Z,7.70
2018-03-18T03:01:50.613Z,7.20
2018-03-18T03:02:22.270Z,6.40
2018-03-18T03:02:53.886Z,7.10
2018-03-18T03:03:25.519Z,7.20
2018-03-18T03:03:57.131Z,5.90
2018-03-18T03:04:28.747Z,6.20
2018-03-18T03:05:00.397Z,6.30
2018-03-18T03:05:32.188Z,6.50
2018-03-18T03:06:03.825Z,7.00
2018-03-18T03:06:35.468Z,6.80
2018-03-18T03:07:07.118Z,6.00
2018-03-18T03:07:38.760Z,5.30
2018-03-18T03:08:10.401Z,5.00
2018-03-18T03:08:42.020Z,6.10
2018-03-18T03:09:13.649Z,7.10
2018-03-18T03:09:45.263Z,5.60
2018-03-18T03:10:16.898Z,5.60
2018-03-18T03:10:48.526Z,6.10
2018-03-18T03:11:20.163Z,5.40
2018-03-18T03:11:51.767Z,6.60
2018-03-18T03:12:23.403Z,6.20
2018-03-18T03:12:55.011Z,5.80
2018-03-18T03:13:26.650Z,6.20
2018-03-18T03:13:58.287Z,6.60
2018-03-18T03:14:29.933Z,6.20
2018-03-18T03:15:01.604Z,5.80
2018-03-18T03:15:33.218Z,5.30
2018-03-18T03:16:04.862Z,5.30
2018-03-18T03:16:36.480Z,5.80
2018-03-18T03:17:08.114Z,6.30
2018-03-18T03:17:39.749Z,6.30
2018-03-18T03:18:11.381Z,5.80
2018-03-18T03:18:43.007Z,6.20
2018-03-18T03:19:14.638Z,5.70
2018-03-18T03:19:46.291Z,6.50
2018-03-18T03:20:17.915Z,5.80
2018-03-18T03:20:49.541Z,5.00
2018-03-18T03:21:21.169Z,5.10
2018-03-18T03:21:52.788Z,5.80
2018-03-18T03:22:24.450Z,5.00
2018-03-18T03:22:56.134Z,5.00
2018-03-18T03:23:27.759Z,5.40
2018-03-18T03:23:59.403Z,5.60
2018-03-18T03:24:31.034Z,5.60
2018-03-18T03:25:02.748Z,5.40
2018-03-18T03:25:34.705Z,5.50
2018-03-18T03:26:06.353Z,6.00
2018-03-18T03:26:37.982Z,6.60
2018-03-18T03:27:09.645Z,5.00
2018-03-18T03:27:41.275Z,5.00
2018-03-18T03:28:12.935Z,5.00
2018-03-18T03:28:44.544Z,5.00
2018-03-18T03:29:16.158Z,5.00
2018-03-18T03:29:47.789Z,5.00
2018-03-18T03:30:19.425Z,5.00
2018-03-18T03:30:51.049Z,5.00
2018-03-18T03:31:22.664Z,5.00
2018-03-18T03:31:54.319Z,6.10
2018-03-18T03:32:25.929Z,5.20
2018-03-18T03:32:57.560Z,5.00
2018-03-18T03:33:29.187Z,5.10
2018-03-18T03:34:00.800Z,5.70
2018-03-18T03:34:32.433Z,5.90
2018-03-18T03:35:04.077Z,5.90
2018-03-18T03:35:35.725Z,6.10
2018-03-18T03:36:07.396Z,5.40
2018-03-18T03:36:39.011Z,5.60
2018-03-18T03:37:10.663Z,5.50
2018-03-18T03:37:42.267Z,5.00
2018-03-18T03:38:13.886Z,5.00
2018-03-18T03:38:45.521Z,5.00
2018-03-18T03:39:17.147Z,5.00
2018-03-18T03:39:48.767Z,5.00
2018-03-18T03:40:20.393Z,6.10
2018-03-18T03:40:52.041Z,5.70
2018-03-18T03:41:23.680Z,5.80
2018-03-18T03:41:55.328Z,5.00
2018-03-18T03:42:26.943Z,5.00
2018-03-18T03:42:58.586Z,5.20
2018-03-18T03:43:30.226Z,5.50
2018-03-18T03:44:01.868Z,6.10
2018-03-18T03:44:33.511Z,5.80
2018-03-18T03:45:05.122Z,5.60
2018-03-18T03:45:36.746Z,5.30
2018-03-18T03:46:08.389Z,5.40
2018-03-18T03:46:40.016Z,6.30
2018-03-18T03:47:11.650Z,6.00
2018-03-18T03:47:43.275Z,6.10
2018-03-18T03:48:14.885Z,6.00
2018-03-18T03:48:46.510Z,6.00
2018-03-18T03:49:18.131Z,6.60
2018-03-18T03:49:49.761Z,6.60
2018-03-18T03:50:21.381Z,6.60
2018-03-18T03:50:53.026Z,6.40
2018-03-18T03:51:24.652Z,6.10
2018-03-18T03:51:56.283Z,5.90
2018-03-18T03:52:27.936Z,6.50
2018-03-18T03:52:59.553Z,7.00
2018-03-18T03:53:31.180Z,7.00
2018-03-18T03:54:02.811Z,6.00
2018-03-18T03:54:34.437Z,6.70
2018-03-18T03:55:06.067Z,6.40
2018-03-18T03:55:37.693Z,6.50
2018-03-18T03:56:09.315Z,6.60
2018-03-18T03:56:40.974Z,6.70
2018-03-18T03:57:12.593Z,6.50
2018-03-18T03:57:44.211Z,6.60
2018-03-18T03:58:15.826Z,6.90
2018-03-18T03:58:47.443Z,7.00
2018-03-18T03:59:19.053Z,7.20
2018-03-18T03:59:50.655Z,6.70
2018-03-18T04:00:22.288Z,6.70
2018-03-18T04:00:53.915Z,6.70
2018-03-18T04:01:25.554Z,7.50
2018-03-18T04:01:57.189Z,6.40
2018-03-18T04:02:28.813Z,6.30
2018-03-18T04:03:00.488Z,6.40
2018-03-18T04:03:32.094Z,6.10
2018-03-18T04:04:03.726Z,5.80
2018-03-18T04:04:35.394Z,5.70
2018-03-18T04:05:06.994Z,6.40
2018-03-18T04:05:38.605Z,6.40
2018-03-18T04:06:10.238Z,6.60
2018-03-18T04:06:41.858Z,6.00
2018-03-18T04:07:13.509Z,6.90
2018-03-18T04:07:45.117Z,7.20
2018-03-18T04:08:16.801Z,7.40
2018-03-18T04:08:48.419Z,8.00
2018-03-18T04:09:20.054Z,8.60
2018-03-18T04:09:51.699Z,6.90
2018-03-18T04:10:23.350Z,6.90
2018-03-18T04:10:54.977Z,8.00
2018-03-18T04:11:26.626Z,6.60
2018-03-18T04:11:58.245Z,7.30
2018-03-18T04:12:29.875Z,8.00
2018-03-18T04:13:01.543Z,7.50
2018-03-18T04:13:33.144Z,7.60
2018-03-18T04:14:04.796Z,8.30
2018-03-18T04:14:36.468Z,7.50
2018-03-18T04:15:08.082Z,7.30
2018-03-18T04:15:39.748Z,7.10
2018-03-18T04:16:11.363Z,8.00
2018-03-18T04:16:42.988Z,8.40
2018-03-18T04:17:14.601Z,7.20
2018-03-18T04:17:46.248Z,7.50
2018-03-18T04:18:17.849Z,6.70
2018-03-18T04:18:49.479Z,6.30
2018-03-18T04:19:21.105Z,6.20
2018-03-18T04:19:52.740Z,6.40
2018-03-18T04:20:24.370Z,5.60
2018-03-18T04:20:56.011Z,6.00
2018-03-18T04:21:27.641Z,6.70
2018-03-18T04:21:59.289Z,5.80
2018-03-18T04:22:30.927Z,6.80
2018-03-18T04:23:02.575Z,7.30
2018-03-18T04:23:34.234Z,7.80
2018-03-18T04:24:05.875Z,7.90
2018-03-18T04:24:37.505Z,7.70
2018-03-18T04:25:09.132Z,8.10
2018-03-18T04:25:40.753Z,8.10
2018-03-18T04:26:12.431Z,7.70
2018-03-18T04:26:44.051Z,8.00
2018-03-18T04:27:15.672Z,7.20
2018-03-18T04:27:47.289Z,6.90
2018-03-18T04:28:18.929Z,7.40
2018-03-18T04:28:50.573Z,6.70
2018-03-18T04:29:22.211Z,6.60
2018-03-18T04:29:53.861Z,6.60
2018-03-18T04:30:25.531Z,7.10
2018-03-18T04:30:57.164Z,7.10
2018-03-18T04:31:28.818Z,7.60
2018-03-18T04:32:00.439Z,8.00
2018-03-18T04:32:32.107Z,7.40
2018-03-18T04:33:03.719Z,7.10
2018-03-18T04:33:35.349Z,7.20
2018-03-18T04:34:06.953Z,7.40
2018-03-18T04:34:38.579Z,8.30
2018-03-18T04:35:10.217Z,8.30
2018-03-18T04:35:41.849Z,7.60
2018-03-18T04:36:13.459Z,8.10
2018-03-18T04:36:45.071Z,7.80
2018-03-18T04:37:16.686Z,7.60
2018-03-18T04:37:48.305Z,8.10
2018-03-18T04:38:19.919Z,7.70
2018-03-18T04:38:51.546Z,8.30
2018-03-18T04:39:23.151Z,8.00
2018-03-18T04:39:54.791Z,8.10
2018-03-18T04:40:26.401Z,7.30
2018-03-18T04:40:58.039Z,7.50
2018-03-18T04:41:29.689Z,8.00
2018-03-18T04:42:01.305Z,8.00
2018-03-18T04:42:32.929Z,8.30
2018-03-18T04:43:04.534Z,7.60
2018-03-18T04:43:36.167Z,7.20
2018-03-18T04:44:07.808Z,7.20
2018-03-18T04:44:39.437Z,7.20
2018-03-18T04:45:11.079Z,7.90
2018-03-18T04:45:42.697Z,6.70
2018-03-18T04:46:14.341Z,7.20
2018-03-18T04:46:45.959Z,7.20
2018-03-18T04:47:17.651Z,8.30
2018-03-18T04:47:49.259Z,6.90
2018-03-18T04:48:20.909Z,7.30
2018-03-18T04:48:52.569Z,7.00
2018-03-18T04:49:24.198Z,6.90
2018-03-18T04:49:55.833Z,7.10
2018-03-18T04:50:27.467Z,7.00
2018-03-18T04:50:59.096Z,7.20
2018-03-18T04:51:30.715Z,6.20
2018-03-18T04:52:02.431Z,6.50
2018-03-18T04:52:34.006Z,6.90
2018-03-18T04:53:05.632Z,6.90
2018-03-18T04:53:37.300Z,6.30
2018-03-18T04:54:08.980Z,6.60
2018-03-18T04:54:40.594Z,6.60
2018-03-18T04:55:12.462Z,6.90
2018-03-18T04:55:44.085Z,7.30
2018-03-18T04:56:16.636Z,7.60
2018-03-18T04:56:48.329Z,7.90
2018-03-18T04:57:19.978Z,6.40
2018-03-18T04:57:51.609Z,6.40
2018-03-18T04:58:23.233Z,6.40
2018-03-18T04:58:54.833Z,6.10
2018-03-18T04:59:26.473Z,6.90
2018-03-18T04:59:58.117Z,7.50
2018-03-18T05:00:29.726Z,7.50
2018-03-18T05:01:01.355Z,7.20
2018-03-18T05:02:21.653Z,7.30
2018-03-18T05:02:53.333Z,7.20
2018-03-18T05:03:24.956Z,8.10
2018-03-18T05:03:56.585Z,7.50
2018-03-18T05:04:28.212Z,7.30
2018-03-18T05:04:59.883Z,7.50
2018-03-18T05:05:31.521Z,7.50
2018-03-18T05:06:03.162Z,8.60
2018-03-18T05:06:34.788Z,8.00
2018-03-18T05:07:06.419Z,7.60
2018-03-18T05:07:38.035Z,7.50
2018-03-18T05:08:09.665Z,6.90
2018-03-18T05:08:41.297Z,6.30
2018-03-18T05:09:12.944Z,7.10
2018-03-18T05:09:44.570Z,6.80
2018-03-18T05:10:16.197Z,6.50
2018-03-18T05:10:47.833Z,6.20
2018-03-18T05:11:19.471Z,6.80
2018-03-18T05:11:51.085Z,6.90
2018-03-18T05:12:22.714Z,6.70
2018-03-18T05:12:54.350Z,7.80
2018-03-18T05:13:25.949Z,7.00
2018-03-18T05:13:57.596Z,6.80
2018-03-18T05:14:29.204Z,7.10
2018-03-18T05:15:00.816Z,8.00
2018-03-18T05:15:32.456Z,7.80
2018-03-18T05:16:04.091Z,8.40
2018-03-18T05:16:35.700Z,8.20
2018-03-18T05:17:07.329Z,8.10
2018-03-18T05:17:38.965Z,8.40
2018-03-18T05:18:10.593Z,8.60
2018-03-18T05:18:42.227Z,8.20
2018-03-18T05:19:13.861Z,8.20
2018-03-18T05:19:45.483Z,7.50
2018-03-18T05:20:17.111Z,7.60
2018-03-18T05:20:48.740Z,6.90
2018-03-18T05:21:20.375Z,6.10
2018-03-18T05:21:52.010Z,6.20
2018-03-18T05:22:23.623Z,5.80
2018-03-18T05:22:55.286Z,6.20
2018-03-18T05:23:26.877Z,6.80
2018-03-18T05:23:58.523Z,7.00
2018-03-18T05:24:30.149Z,6.90
2018-03-18T05:25:01.759Z,7.10
2018-03-18T05:25:33.401Z,7.40
2018-03-18T05:26:05.038Z,7.10
2018-03-18T05:26:36.665Z,7.50
2018-03-18T05:27:08.310Z,6.90
2018-03-18T05:27:39.913Z,7.00
2018-03-18T05:28:11.548Z,6.90
2018-03-18T05:28:43.171Z,7.60
2018-03-18T05:29:14.800Z,8.00
2018-03-18T05:29:46.415Z,6.70
2018-03-18T05:30:18.027Z,7.20
2018-03-18T05:30:49.672Z,7.30
2018-03-18T05:31:21.363Z,7.40
2018-03-18T05:31:53.009Z,8.40
2018-03-18T05:32:24.663Z,7.30
2018-03-18T05:32:56.301Z,7.60
2018-03-18T05:33:27.929Z,7.90
2018-03-18T05:33:59.560Z,6.90
2018-03-18T05:34:31.199Z,6.10
2018-03-18T05:35:02.855Z,5.90
2018-03-18T05:35:34.471Z,6.50
2018-03-18T05:36:06.094Z,5.60
2018-03-18T05:36:37.756Z,6.20
2018-03-18T05:37:09.375Z,6.60
2018-03-18T05:37:41.026Z,6.50
2018-03-18T05:38:12.673Z,5.30
2018-03-18T05:38:44.328Z,5.50
2018-03-18T05:39:15.977Z,6.00
2018-03-18T05:39:47.639Z,5.80
2018-03-18T05:40:19.259Z,5.50
2018-03-18T05:40:50.921Z,5.50
2018-03-18T05:41:22.591Z,5.90
2018-03-18T05:41:54.212Z,5.70
2018-03-18T05:42:25.839Z,6.70
2018-03-18T05:42:57.464Z,6.60
2018-03-18T05:43:29.099Z,6.40
2018-03-18T05:44:00.731Z,6.40
2018-03-18T05:44:32.351Z,5.80
2018-03-18T05:45:03.977Z,5.20
2018-03-18T05:45:35.611Z,6.10
2018-03-18T05:46:07.245Z,5.90
2018-03-18T05:46:38.886Z,6.00
2018-03-18T05:47:10.509Z,5.90
2018-03-18T05:47:42.149Z,5.70
2018-03-18T05:48:13.768Z,5.50
2018-03-18T05:48:45.383Z,6.10
2018-03-18T05:49:17.012Z,6.00
2018-03-18T05:49:48.635Z,5.50
2018-03-18T05:50:20.258Z,6.20
2018-03-18T05:50:51.920Z,5.50
2018-03-18T05:51:23.553Z,5.80
2018-03-18T05:51:55.167Z,5.40
2018-03-18T05:52:26.831Z,6.60
2018-03-18T05:52:58.478Z,5.60
2018-03-18T05:53:30.110Z,6.10
2018-03-18T05:54:01.760Z,6.00
2018-03-18T05:54:33.413Z,5.40
2018-03-18T05:55:05.103Z,5.70
2018-03-18T05:55:36.717Z,6.30
2018-03-18T05:56:08.342Z,5.70
2018-03-18T05:56:40.000Z,5.60
2018-03-18T05:57:11.617Z,5.00
2018-03-18T05:57:43.250Z,5.00
2018-03-18T05:58:14.850Z,5.00
2018-03-18T05:58:46.517Z,5.00
2018-03-18T05:59:18.143Z,5.30
2018-03-18T05:59:49.765Z,5.50
2018-03-18T06:00:21.399Z,5.50
2018-03-18T06:00:53.013Z,5.50
2018-03-18T06:01:24.653Z,5.60
2018-03-18T06:01:56.271Z,5.30
2018-03-18T06:02:27.898Z,5.00
2018-03-18T06:02:59.522Z,5.40
2018-03-18T06:03:31.128Z,5.40
2018-03-18T06:04:02.779Z,6.00
2018-03-18T06:04:34.388Z,6.30
2018-03-18T06:05:06.020Z,6.20
2018-03-18T06:05:37.663Z,6.70
2018-03-18T06:06:09.289Z,6.90
2018-03-18T06:06:40.913Z,6.60
2018-03-18T06:07:12.534Z,6.10
2018-03-18T06:07:44.145Z,5.30
2018-03-18T06:08:15.793Z,5.60
2018-03-18T06:08:47.424Z,5.50
2018-03-18T06:09:19.040Z,5.40
2018-03-18T06:09:50.657Z,5.80
2018-03-18T06:10:22.281Z,6.70
2018-03-18T06:10:53.919Z,6.90
2018-03-18T06:11:25.534Z,5.60
2018-03-18T06:11:57.185Z,5.20
2018-03-18T06:12:28.820Z,5.00
2018-03-18T06:13:00.466Z,5.80
2018-03-18T06:13:32.103Z,5.50
2018-03-18T06:14:03.715Z,5.00
2018-03-18T06:14:35.338Z,5.50
2018-03-18T06:15:06.949Z,5.30
2018-03-18T06:15:38.557Z,5.50
2018-03-18T06:16:10.187Z,5.50
2018-03-18T06:16:41.802Z,5.00
2018-03-18T06:17:13.433Z,5.00
2018-03-18T06:17:45.043Z,5.00
2018-03-18T06:18:16.662Z,5.00
2018-03-18T06:18:48.319Z,5.00
2018-03-18T06:19:19.988Z,5.20
2018-03-18T06:19:51.615Z,5.40
2018-03-18T06:20:23.221Z,5.20
2018-03-18T06:20:54.873Z,5.20
2018-03-18T06:21:26.473Z,5.50
2018-03-18T06:21:58.075Z,5.60
2018-03-18T06:22:29.720Z,6.10
2018-03-18T06:23:01.365Z,5.00
2018-03-18T06:23:32.993Z,5.00
2018-03-18T06:24:04.616Z,5.30
2018-03-18T06:24:36.227Z,5.00
2018-03-18T06:25:07.852Z,5.00
2018-03-18T06:25:39.490Z,5.00
2018-03-18T06:26:11.129Z,5.30
2018-03-18T06:26:42.753Z,5.00
2018-03-18T06:27:14.368Z,5.20
2018-03-18T06:27:49.571Z,5.10
2018-03-18T06:28:21.216Z,5.00
2018-03-18T06:28:52.838Z,5.00
2018-03-18T06:29:24.481Z,5.00
2018-03-18T06:29:56.091Z,5.00
2018-03-18T06:30:27.721Z,5.00
2018-03-18T06:30:59.349Z,5.00
2018-03-18T06:31:31.006Z,5.00
2018-03-18T06:32:02.627Z,5.00
2018-03-18T06:32:34.237Z,5.00
2018-03-18T06:33:05.836Z,5.00
2018-03-18T06:33:37.456Z,5.00
2018-03-18T06:34:09.081Z,5.00
2018-03-18T06:34:40.729Z,5.00
2018-03-18T06:35:12.351Z,5.00
2018-03-18T06:35:43.967Z,5.00
2018-03-18T06:36:15.572Z,5.00
2018-03-18T06:36:47.185Z,5.00
2018-03-18T06:37:18.822Z,5.00
2018-03-18T06:37:50.447Z,5.00
2018-03-18T06:38:22.049Z,5.00
2018-03-18T06:38:53.677Z,5.00
2018-03-18T06:39:25.323Z,5.00
2018-03-18T06:39:56.938Z,5.00
2018-03-18T06:40:28.589Z,5.00
2018-03-18T06:41:00.220Z,5.00
2018-03-18T06:41:31.864Z,5.00
2018-03-18T06:42:03.521Z,5.00
2018-03-18T06:42:35.142Z,5.00
2018-03-18T06:43:06.864Z,5.00
2018-03-18T06:43:38.467Z,5.00
2018-03-18T06:44:10.085Z,5.00
2018-03-18T06:44:41.709Z,5.00
2018-03-18T06:45:13.340Z,5.00
2018-03-18T06:45:44.959Z,5.00
2018-03-18T06:46:16.613Z,5.00
2018-03-18T06:46:48.250Z,5.00
2018-03-18T06:47:19.871Z,5.00
2018-03-18T06:47:51.527Z,5.00
2018-03-18T06:48:23.157Z,5.00
2018-03-18T06:48:54.814Z,5.00
2018-03-18T06:49:26.422Z,5.00
2018-03-18T06:49:58.040Z,5.00
2018-03-18T06:50:29.684Z,5.00
2018-03-18T06:51:01.285Z,5.00
2018-03-18T06:51:32.910Z,5.00
2018-03-18T06:52:04.550Z,5.00
2018-03-18T06:52:36.174Z,5.00
2018-03-18T06:53:07.806Z,5.00
2018-03-18T06:53:39.417Z,5.00
2018-03-18T06:54:11.062Z,5.00
2018-03-18T06:54:42.680Z,5.00
2018-03-18T06:55:14.288Z,5.00
2018-03-18T06:55:45.938Z,5.00
2018-03-18T06:56:17.562Z,5.00
2018-03-18T06:56:49.194Z,5.00
2018-03-18T06:57:20.805Z,5.00
2018-03-18T06:57:52.444Z,5.00
2018-03-18T06:58:24.100Z,5.00
2018-03-18T06:58:55.725Z,5.00
2018-03-18T06:59:27.356Z,5.00
2018-03-18T06:59:58.992Z,5.00
2018-03-18T07:00:30.625Z,5.00
2018-03-18T07:01:02.291Z,5.00
2018-03-18T07:01:33.941Z,5.00
2018-03-18T07:02:05.557Z,5.00
2018-03-18T07:02:37.191Z,5.00